Esbon, Kansas
Current Conditions -  °F | °C
As of 10:55 PM on Monday 26 Jan 2015 (Local Time) from KCNK Reporting Station
Clear Clear  
Wind Chill: 41°   Ceiling: Unl
Heat Index: 45°   Visibility: 10mi
Dew Point: 33°   Wind: 7mph
Humidity: 63%   Direction: 270°W
Pressure: 30.05"   Gusts: NA
Location:  39.82°N, 98.44°W
Report Text: KCNK 270455Z AUTO 27006KT 10SM CLR 07/01 A3005 RMK AO2 SLP178 T00720006
Loading
Personal Weather Stations






























Interactive Weather Map New forecast layout! Learn more

10-Day Weather Forecast

Advertisements
Track Severe Weather on mobile